This is the latest recevied weather packets stored in our database for station/object IZ4MEH-10. If no packets are shown the sender has not sent any weather packets the latest 10 day(s).
| Time | Temp. | Humidity | Pressure | Rain* | Wind** | Luminosity | Snow |
|---|---|---|---|---|---|---|---|
| 1777327465 | 19.44° C | 57% | 1013.5 hPa | - | - | - | - |
| 1777325664 | 20° C | 53% | 1013.5 hPa | - | - | - | - |
| 1777323862 | 20.56° C | 60% | 1013.5 hPa | - | - | - | - |
| 1777322061 | 21.67° C | 56% | 1013.5 hPa | - | - | - | - |
| 1777320260 | 21.11° C | 59% | 1013.4 hPa | - | - | - | - |
| 1777318459 | 22.22° C | 53% | 1013 hPa | - | - | - | - |
| 1777316657 | 22.78° C | 54% | 1012.8 hPa | - | - | - | - |
| 1777314856 | 23.33° C | 53% | 1012.4 hPa | - | - | - | - |
| 1777313054 | 23.89° C | 50% | 1012.3 hPa | - | - | - | - |
| 1777311253 | 24.44° C | 46% | 1012.2 hPa | - | - | - | - |
| 1777309451 | 25.56° C | 44% | 1012 hPa | - | - | - | - |
| 1777305849 | 25.56° C | 43% | 1012.4 hPa | - | - | - | - |
| 1777304047 | 26.11° C | 41% | 1012.6 hPa | - | - | - | - |
| 1777302246 | 26.67° C | 40% | 1012.8 hPa | - | - | - | - |
| 1777300445 | 26.67° C | 40% | 1013.1 hPa | - | - | - | - |
| 1777298644 | 26.67° C | 38% | 1013.4 hPa | - | - | - | - |
| 1777296842 | 26.11° C | 40% | 1013.8 hPa | - | - | - | - |
| 1777295041 | 26.11° C | 40% | 1014.2 hPa | - | - | - | - |
| 1777293240 | 26.11° C | 41% | 1014.6 hPa | - | - | - | - |
| 1777291439 | 26.11° C | 39% | 1015.1 hPa | - | - | - | - |
| 1777289638 | 26.11° C | 41% | 1015.3 hPa | - | - | - | - |
| 1777287836 | 26.67° C | 42% | 1015.5 hPa | - | - | - | - |
| 1777286035 | 31.67° C | 33% | 1015.9 hPa | - | - | - | - |
| 1777284234 | 31.67° C | 34% | 1016.1 hPa | - | - | - | - |
| 1777282432 | 31.67° C | 35% | 1016.5 hPa | - | - | - | - |
* Rain since midnight (hover to see other rain measurements)
** Current wind speed in m/s (hover to see current wind gust speed)